sensor_id;sensor_type;location;lat;lon;timestamp;pressure;altitude;pressure_sealevel;temperature;humidity
12763;BME280;6445;52.490;13.378;2023-02-13T00:00:40;-12695.97;;;-146.10;100.00
12763;BME280;6445;52.490;13.378;2023-02-13T00:03:05;-12695.97;;;-146.10;100.00
12763;BME280;6445;52.490;13.378;2023-02-13T00:05:30;-12695.97;;;-146.10;100.00
12763;BME280;6445;52.490;13.378;2023-02-13T00:07:56;-12695.97;;;-146.10;100.00
12763;BME280;6445;52.490;13.378;2023-02-13T00:10:24;-12695.97;;;-146.10;100.00
12763;BME280;6445;52.490;13.378;2023-02-13T00:12:49;-12695.97;;;-146.10;100.00
12763;BME280;6445;52.490;13.378;2023-02-13T00:15:14;-12695.97;;;-146.10;100.00
12763;BME280;6445;52.490;13.378;2023-02-13T00:17:39;-12695.97;;;-146.10;100.00
12763;BME280;6445;52.490;13.378;2023-02-13T00:20:05;-12695.97;;;-146.10;100.00
12763;BME280;6445;52.490;13.378;2023-02-13T00:22:35;-12695.97;;;-146.10;100.00
12763;BME280;6445;52.490;13.378;2023-02-13T00:25:01;-12695.97;;;-146.10;100.00
12763;BME280;6445;52.490;13.378;2023-02-13T00:27:26;-12695.97;;;-146.10;100.00
12763;BME280;6445;52.490;13.378;2023-02-13T00:29:51;-12695.97;;;-146.10;100.00
12763;BME280;6445;52.490;13.378;2023-02-13T00:32:16;-12695.97;;;-146.10;100.00
12763;BME280;6445;52.490;13.378;2023-02-13T00:34:42;-12695.97;;;-146.10;100.00
12763;BME280;6445;52.490;13.378;2023-02-13T00:37:08;-12695.97;;;-146.10;100.00
12763;BME280;6445;52.490;13.378;2023-02-13T00:39:33;-12695.97;;;-146.10;100.00
12763;BME280;6445;52.490;13.378;2023-02-13T00:41:58;-12695.97;;;-146.10;100.00
12763;BME280;6445;52.490;13.378;2023-02-13T00:44:24;-12695.97;;;-146.10;100.00
12763;BME280;6445;52.490;13.378;2023-02-13T00:46:49;-12695.97;;;-146.10;100.00
12763;BME280;6445;52.490;13.378;2023-02-13T00:49:17;-12695.97;;;-146.10;100.00
12763;BME280;6445;52.490;13.378;2023-02-13T00:51:42;-12695.97;;;-146.10;100.00
12763;BME280;6445;52.490;13.378;2023-02-13T00:54:38;-12695.97;;;-146.10;100.00
12763;BME280;6445;52.490;13.378;2023-02-13T00:57:03;-12695.97;;;-146.10;100.00
12763;BME280;6445;52.490;13.378;2023-02-13T00:59:29;-12695.97;;;-146.10;100.00
12763;BME280;6445;52.490;13.378;2023-02-13T01:01:54;-12695.97;;;-146.10;100.00
12763;BME280;6445;52.490;13.378;2023-02-13T01:04:20;-12695.97;;;-146.10;100.00
12763;BME280;6445;52.490;13.378;2023-02-13T01:06:45;-12695.97;;;-146.10;100.00
12763;BME280;6445;52.490;13.378;2023-02-13T01:09:10;-12695.97;;;-146.10;100.00
12763;BME280;6445;52.490;13.378;2023-02-13T01:11:36;-12695.97;;;-146.10;100.00
12763;BME280;6445;52.490;13.378;2023-02-13T01:14:01;-12695.97;;;-146.10;100.00
12763;BME280;6445;52.490;13.378;2023-02-13T01:16:26;-12695.97;;;-146.10;100.00
12763;BME280;6445;52.490;13.378;2023-02-13T01:18:52;-12695.97;;;-146.10;100.00
12763;BME280;6445;52.490;13.378;2023-02-13T01:21:19;-12695.97;;;-146.10;100.00
12763;BME280;6445;52.490;13.378;2023-02-13T01:23:45;-12694.50;;;-146.10;100.00
12763;BME280;6445;52.490;13.378;2023-02-13T01:26:18;-12694.50;;;-146.10;100.00
12763;BME280;6445;52.490;13.378;2023-02-13T01:28:43;-12442.63;;;-146.10;100.00
12763;BME280;6445;52.490;13.378;2023-02-13T01:31:09;-12190.78;;;-146.10;100.00
12763;BME280;6445;52.490;13.378;2023-02-13T01:33:34;-11687.00;;;-146.10;100.00
12763;BME280;6445;52.490;13.378;2023-02-13T01:36:07;-11435.06;;;-146.10;100.00
12763;BME280;6445;52.490;13.378;2023-02-13T01:38:33;-11687.00;;;-146.10;100.00
12763;BME280;6445;52.490;13.378;2023-02-13T01:40:58;-11435.06;;;-146.10;100.00
12763;BME280;6445;52.490;13.378;2023-02-13T01:43:40;-11687.00;;;-146.10;100.00
12763;BME280;6445;52.490;13.378;2023-02-13T01:46:06;-11435.06;;;-146.10;100.00
12763;BME280;6445;52.490;13.378;2023-02-13T01:48:31;-11435.06;;;-146.10;100.00
12763;BME280;6445;52.490;13.378;2023-02-13T01:51:03;-11687.00;;;-146.10;100.00
12763;BME280;6445;52.490;13.378;2023-02-13T01:53:37;-11687.00;;;-146.10;100.00
12763;BME280;6445;52.490;13.378;2023-02-13T01:58:45;-11938.88;;;-146.10;100.00
12763;BME280;6445;52.490;13.378;2023-02-13T02:01:12;-12190.78;;;-146.10;100.00
12763;BME280;6445;52.490;13.378;2023-02-13T02:03:42;-12442.63;;;-146.10;100.00
12763;BME280;6445;52.490;13.378;2023-02-13T02:06:15;-12694.50;;;-146.10;100.00
12763;BME280;6445;52.490;13.378;2023-02-13T02:08:41;-12694.50;;;-146.10;100.00
12763;BME280;6445;52.490;13.378;2023-02-13T02:11:16;-12694.50;;;-146.10;100.00
12763;BME280;6445;52.490;13.378;2023-02-13T02:13:44;-12695.97;;;-146.10;100.00
12763;BME280;6445;52.490;13.378;2023-02-13T02:16:10;-12695.97;;;-146.10;100.00
12763;BME280;6445;52.490;13.378;2023-02-13T02:18:35;-12695.97;;;-146.10;100.00
12763;BME280;6445;52.490;13.378;2023-02-13T02:23:50;-12695.97;;;-146.10;100.00
12763;BME280;6445;52.490;13.378;2023-02-13T02:32:22;-12695.97;;;-146.10;100.00
12763;BME280;6445;52.490;13.378;2023-02-13T02:35:17;-12695.97;;;-146.10;100.00
12763;BME280;6445;52.490;13.378;2023-02-13T02:40:59;-12695.97;;;-146.10;100.00
12763;BME280;6445;52.490;13.378;2023-02-13T02:43:50;-12695.97;;;-146.10;100.00
12763;BME280;6445;52.490;13.378;2023-02-13T02:46:27;-12695.97;;;-146.10;100.00
12763;BME280;6445;52.490;13.378;2023-02-13T02:49:03;-12695.97;;;-146.10;100.00
12763;BME280;6445;52.490;13.378;2023-02-13T02:54:45;-12695.97;;;-146.10;100.00
12763;BME280;6445;52.490;13.378;2023-02-13T02:57:36;-12695.97;;;-146.10;100.00
12763;BME280;6445;52.490;13.378;2023-02-13T03:00:23;-12695.97;;;-146.10;100.00
12763;BME280;6445;52.490;13.378;2023-02-13T03:03:18;-12695.97;;;-146.10;100.00
12763;BME280;6445;52.490;13.378;2023-02-13T03:06:10;-12695.97;;;-146.10;100.00
12763;BME280;6445;52.490;13.378;2023-02-13T03:08:39;-12695.97;;;-146.10;100.00
12763;BME280;6445;52.490;13.378;2023-02-13T03:11:25;-12695.97;;;-146.10;100.00
12763;BME280;6445;52.490;13.378;2023-02-13T03:14:10;-12695.97;;;-146.10;100.00
12763;BME280;6445;52.490;13.378;2023-02-13T03:16:37;-12695.97;;;-146.10;100.00
12763;BME280;6445;52.490;13.378;2023-02-13T03:22:57;-12695.97;;;-146.10;100.00
12763;BME280;6445;52.490;13.378;2023-02-13T03:28:57;-12695.97;;;-146.10;100.00
12763;BME280;6445;52.490;13.378;2023-02-13T03:31:53;-12695.97;;;-146.10;100.00
12763;BME280;6445;52.490;13.378;2023-02-13T03:34:32;-12695.97;;;-146.10;100.00
12763;BME280;6445;52.490;13.378;2023-02-13T03:37:26;-12695.97;;;-146.10;100.00
12763;BME280;6445;52.490;13.378;2023-02-13T03:40:15;-12695.97;;;-146.10;100.00
12763;BME280;6445;52.490;13.378;2023-02-13T03:42:54;-12695.97;;;-146.10;100.00
12763;BME280;6445;52.490;13.378;2023-02-13T03:45:25;-12695.97;;;-146.10;100.00
12763;BME280;6445;52.490;13.378;2023-02-13T03:48:11;-12695.97;;;-146.10;100.00
12763;BME280;6445;52.490;13.378;2023-02-13T03:50:59;-12695.97;;;-146.10;100.00
12763;BME280;6445;52.490;13.378;2023-02-13T03:53:28;-12695.97;;;-146.10;100.00
12763;BME280;6445;52.490;13.378;2023-02-13T03:55:57;-12695.97;;;-146.10;100.00
12763;BME280;6445;52.490;13.378;2023-02-13T03:58:48;-12695.97;;;-146.10;100.00
12763;BME280;6445;52.490;13.378;2023-02-13T04:01:35;-12695.97;;;-146.10;100.00
12763;BME280;6445;52.490;13.378;2023-02-13T04:04:21;-12695.97;;;-146.10;100.00
12763;BME280;6445;52.490;13.378;2023-02-13T04:06:59;-12695.97;;;-146.10;100.00
12763;BME280;6445;52.490;13.378;2023-02-13T04:09:27;-12695.97;;;-146.10;100.00
12763;BME280;6445;52.490;13.378;2023-02-13T04:12:04;-12695.97;;;-146.10;100.00
12763;BME280;6445;52.490;13.378;2023-02-13T04:14:38;-12695.97;;;-146.10;100.00
12763;BME280;6445;52.490;13.378;2023-02-13T04:17:11;-12695.97;;;-146.10;100.00
12763;BME280;6445;52.490;13.378;2023-02-13T04:19:38;-12695.97;;;-146.10;100.00
12763;BME280;6445;52.490;13.378;2023-02-13T04:22:04;-12695.97;;;-146.10;100.00
12763;BME280;6445;52.490;13.378;2023-02-13T04:24:29;-12695.97;;;-146.10;100.00
12763;BME280;6445;52.490;13.378;2023-02-13T04:26:55;-12695.97;;;-146.10;100.00
12763;BME280;6445;52.490;13.378;2023-02-13T04:29:21;-12695.97;;;-146.10;100.00
12763;BME280;6445;52.490;13.378;2023-02-13T04:31:47;-12695.97;;;-146.10;100.00
12763;BME280;6445;52.490;13.378;2023-02-13T04:34:12;-12695.97;;;-146.10;100.00
12763;BME280;6445;52.490;13.378;2023-02-13T04:36:37;-12695.97;;;-146.10;100.00
12763;BME280;6445;52.490;13.378;2023-02-13T04:39:03;-12695.97;;;-146.10;100.00
12763;BME280;6445;52.490;13.378;2023-02-13T04:41:28;-12695.97;;;-146.10;100.00
12763;BME280;6445;52.490;13.378;2023-02-13T04:43:53;-12695.97;;;-146.10;100.00
12763;BME280;6445;52.490;13.378;2023-02-13T04:46:18;-12695.97;;;-146.10;100.00
12763;BME280;6445;52.490;13.378;2023-02-13T04:48:44;-12695.97;;;-146.10;100.00
12763;BME280;6445;52.490;13.378;2023-02-13T04:51:09;-12695.97;;;-146.10;100.00
12763;BME280;6445;52.490;13.378;2023-02-13T04:53:34;-12695.97;;;-146.10;100.00
12763;BME280;6445;52.490;13.378;2023-02-13T04:55:59;-12695.97;;;-146.10;100.00
12763;BME280;6445;52.490;13.378;2023-02-13T04:58:25;-12695.97;;;-146.10;100.00
12763;BME280;6445;52.490;13.378;2023-02-13T05:00:50;-12695.97;;;-146.10;100.00
12763;BME280;6445;52.490;13.378;2023-02-13T05:03:15;-12695.97;;;-146.10;100.00
12763;BME280;6445;52.490;13.378;2023-02-13T05:05:40;-12695.97;;;-146.10;100.00
12763;BME280;6445;52.490;13.378;2023-02-13T05:08:06;-12695.97;;;-146.10;100.00
12763;BME280;6445;52.490;13.378;2023-02-13T05:10:32;-12695.97;;;-146.10;100.00
12763;BME280;6445;52.490;13.378;2023-02-13T05:12:58;-12695.97;;;-146.10;100.00
12763;BME280;6445;52.490;13.378;2023-02-13T05:15:23;-12695.97;;;-146.10;100.00
12763;BME280;6445;52.490;13.378;2023-02-13T05:17:49;-12695.97;;;-146.10;100.00
12763;BME280;6445;52.490;13.378;2023-02-13T05:20:15;-12695.97;;;-146.10;100.00
12763;BME280;6445;52.490;13.378;2023-02-13T05:22:48;-12695.97;;;-146.10;100.00
12763;BME280;6445;52.490;13.378;2023-02-13T05:25:35;-12695.97;;;-146.10;100.00
12763;BME280;6445;52.490;13.378;2023-02-13T05:28:01;-12695.97;;;-146.10;100.00
12763;BME280;6445;52.490;13.378;2023-02-13T05:30:26;-12694.50;;;-146.10;100.00
12763;BME280;6445;52.490;13.378;2023-02-13T05:32:52;-12694.50;;;-146.10;100.00
12763;BME280;6445;52.490;13.378;2023-02-13T05:35:19;-12694.50;;;-146.10;100.00
12763;BME280;6445;52.490;13.378;2023-02-13T05:37:44;-12442.63;;;-146.10;100.00
12763;BME280;6445;52.490;13.378;2023-02-13T05:40:10;-12190.78;;;-146.10;100.00
12763;BME280;6445;52.490;13.378;2023-02-13T05:42:37;-11938.88;;;-146.10;100.00
12763;BME280;6445;52.490;13.378;2023-02-13T05:45:02;-11687.00;;;-146.10;100.00
12763;BME280;6445;52.490;13.378;2023-02-13T05:47:27;-11435.06;;;-146.10;100.00
12763;BME280;6445;52.490;13.378;2023-02-13T05:49:53;-10931.19;;;-146.10;100.00
12763;BME280;6445;52.490;13.378;2023-02-13T05:52:18;-10427.25;;;-146.10;100.00
12763;BME280;6445;52.490;13.378;2023-02-13T05:54:43;-10427.25;;;-146.10;100.00
12763;BME280;6445;52.490;13.378;2023-02-13T05:57:08;-9923.22;;;-146.10;100.00
12763;BME280;6445;52.490;13.378;2023-02-13T05:59:34;-9923.22;;;-146.10;100.00
12763;BME280;6445;52.490;13.378;2023-02-13T06:01:59;-8662.91;;;-146.10;100.00
12763;BME280;6445;52.490;13.378;2023-02-13T06:04:24;-7402.16;;;-146.10;100.00
12763;BME280;6445;52.490;13.378;2023-02-13T06:06:50;-5888.72;;;-146.10;100.00
12763;BME280;6445;52.490;13.378;2023-02-13T06:09:15;-4374.69;;;-146.10;100.00
12763;BME280;6445;52.490;13.378;2023-02-13T06:11:40;-3617.44;;;-146.10;100.00
12763;BME280;6445;52.490;13.378;2023-02-13T06:14:05;-3112.53;;;-146.10;100.00
12763;BME280;6445;52.490;13.378;2023-02-13T06:16:31;-1597.41;;;-146.10;100.00
12763;BME280;6445;52.490;13.378;2023-02-13T06:18:56;-2102.50;;;-146.10;100.00
12763;BME280;6445;52.490;13.378;2023-02-13T06:21:22;-2607.53;;;-146.10;100.00
12763;BME280;6445;52.490;13.378;2023-02-13T06:23:47;-1849.97;;;-146.10;100.00
12763;BME280;6445;52.490;13.378;2023-02-13T06:26:12;-1092.22;;;-146.10;100.00
12763;BME280;6445;52.490;13.378;2023-02-13T06:28:37;-81.66;;;-146.10;100.00
12763;BME280;6445;52.490;13.378;2023-02-13T06:31:03;676.41;;;-146.10;100.00
12763;BME280;6445;52.490;13.378;2023-02-13T06:33:28;1687.44;;;-146.10;100.00
12763;BME280;6445;52.490;13.378;2023-02-13T06:35:54;1940.22;;;-146.10;100.00
12763;BME280;6445;52.490;13.378;2023-02-13T06:38:19;2951.56;;;-146.10;100.00
12763;BME280;6445;52.490;13.378;2023-02-13T06:40:46;2445.88;;;-146.10;100.00
12763;BME280;6445;52.490;13.378;2023-02-13T06:43:11;2951.56;;;-146.10;100.00
12763;BME280;6445;52.490;13.378;2023-02-13T06:45:37;2698.72;;;-146.10;100.00
12763;BME280;6445;52.490;13.378;2023-02-13T06:48:02;2951.56;;;-146.10;100.00
12763;BME280;6445;52.490;13.378;2023-02-13T06:50:27;4469.09;;;-146.10;100.00
12763;BME280;6445;52.490;13.378;2023-02-13T06:52:53;3710.25;;;-146.10;100.00
12763;BME280;6445;52.490;13.378;2023-02-13T06:55:18;4216.13;;;-146.10;100.00
12763;BME280;6445;52.490;13.378;2023-02-13T06:57:45;4216.13;;;-146.10;100.00
12763;BME280;6445;52.490;13.378;2023-02-13T07:00:12;4216.13;;;-146.10;100.00
12763;BME280;6445;52.490;13.378;2023-02-13T07:02:42;3963.19;;;-146.10;100.00
12763;BME280;6445;52.490;13.378;2023-02-13T07:05:08;3457.34;;;-146.10;100.00
12763;BME280;6445;52.490;13.378;2023-02-13T07:07:38;3457.34;;;-146.10;100.00
12763;BME280;6445;52.490;13.378;2023-02-13T07:10:05;2708.59;;;-146.10;100.00
12763;BME280;6445;52.490;13.378;2023-02-13T07:12:34;1399.09;;;-146.10;100.00
12763;BME280;6445;52.490;13.378;2023-02-13T07:15:01;725.78;;;-146.10;100.00
12763;BME280;6445;52.490;13.378;2023-02-13T07:17:26;-529.75;;;-146.10;100.00
12763;BME280;6445;52.490;13.378;2023-02-13T07:19:52;-1597.41;;;-146.10;100.00
12763;BME280;6445;52.490;13.378;2023-02-13T07:22:17;-2355.03;;;-146.10;100.00
12763;BME280;6445;52.490;13.378;2023-02-13T07:24:42;-2607.53;;;-146.10;100.00
12763;BME280;6445;52.490;13.378;2023-02-13T07:27:08;-2860.03;;;-146.10;100.00
12763;BME280;6445;52.490;13.378;2023-02-13T07:29:33;-3112.53;;;-146.10;100.00
12763;BME280;6445;52.490;13.378;2023-02-13T07:31:58;-3365.00;;;-146.10;100.00
12763;BME280;6445;52.490;13.378;2023-02-13T07:34:24;-3869.88;;;-146.10;100.00
12763;BME280;6445;52.490;13.378;2023-02-13T07:36:49;-3869.88;;;-146.10;100.00
12763;BME280;6445;52.490;13.378;2023-02-13T07:39:14;-3869.88;;;-146.10;100.00
12763;BME280;6445;52.490;13.378;2023-02-13T07:41:39;-3365.00;;;-146.10;100.00
12763;BME280;6445;52.490;13.378;2023-02-13T07:44:04;-3112.53;;;-146.10;100.00
12763;BME280;6445;52.490;13.378;2023-02-13T07:46:30;-3365.00;;;-146.10;100.00
12763;BME280;6445;52.490;13.378;2023-02-13T07:48:55;-3617.44;;;-146.10;100.00
12763;BME280;6445;52.490;13.378;2023-02-13T07:51:20;-3617.44;;;-146.10;100.00
12763;BME280;6445;52.490;13.378;2023-02-13T07:53:49;-4374.69;;;-146.10;100.00
12763;BME280;6445;52.490;13.378;2023-02-13T07:56:14;-4627.06;;;-146.10;100.00
12763;BME280;6445;52.490;13.378;2023-02-13T07:58:40;-4374.69;;;-146.10;100.00
12763;BME280;6445;52.490;13.378;2023-02-13T08:01:07;-4122.28;;;-146.10;100.00
12763;BME280;6445;52.490;13.378;2023-02-13T08:03:32;-4374.69;;;-146.10;100.00
12763;BME280;6445;52.490;13.378;2023-02-13T08:05:58;-4374.69;;;-146.10;100.00
12763;BME280;6445;52.490;13.378;2023-02-13T08:08:23;-4122.28;;;-146.10;100.00
12763;BME280;6445;52.490;13.378;2023-02-13T08:10:48;-3869.88;;;-146.10;100.00
12763;BME280;6445;52.490;13.378;2023-02-13T08:13:32;-3869.88;;;-146.10;100.00
12763;BME280;6445;52.490;13.378;2023-02-13T08:15:57;-3112.53;;;-146.10;100.00
12763;BME280;6445;52.490;13.378;2023-02-13T08:18:22;-3617.44;;;-146.10;100.00
12763;BME280;6445;52.490;13.378;2023-02-13T08:20:48;-3112.53;;;-146.10;100.00
12763;BME280;6445;52.490;13.378;2023-02-13T08:23:13;-1849.97;;;-146.10;100.00
12763;BME280;6445;52.490;13.378;2023-02-13T08:25:38;-1344.81;;;-146.10;100.00
12763;BME280;6445;52.490;13.378;2023-02-13T08:28:04;-1597.41;;;-146.10;100.00
12763;BME280;6445;52.490;13.378;2023-02-13T08:30:29;-1092.22;;;-146.10;100.00
12763;BME280;6445;52.490;13.378;2023-02-13T08:32:54;-81.66;;;-146.10;100.00
12763;BME280;6445;52.490;13.378;2023-02-13T08:35:21;171.00;;;-146.10;100.00
12763;BME280;6445;52.490;13.378;2023-02-13T08:37:46;171.00;;;-146.10;100.00
12763;BME280;6445;52.490;13.378;2023-02-13T08:40:12;423.72;;;-146.10;100.00
12763;BME280;6445;52.490;13.378;2023-02-13T08:42:37;1434.66;;;-146.10;100.00
12763;BME280;6445;52.490;13.378;2023-02-13T08:45:03;1434.66;;;-146.10;100.00
12763;BME280;6445;52.490;13.378;2023-02-13T08:47:29;1687.44;;;-146.10;100.00
12763;BME280;6445;52.490;13.378;2023-02-13T08:49:55;1181.91;;;-146.10;100.00
12763;BME280;6445;52.490;13.378;2023-02-13T08:52:20;676.41;;;-146.10;100.00
12763;BME280;6445;52.490;13.378;2023-02-13T08:54:45;676.41;;;-146.10;100.00
12763;BME280;6445;52.490;13.378;2023-02-13T08:57:10;171.00;;;-146.10;100.00
12763;BME280;6445;52.490;13.378;2023-02-13T08:59:36;676.41;;;-146.10;100.00
12763;BME280;6445;52.490;13.378;2023-02-13T09:02:01;1181.91;;;-146.10;100.00
12763;BME280;6445;52.490;13.378;2023-02-13T09:04:26;1434.66;;;-146.10;100.00
12763;BME280;6445;52.490;13.378;2023-02-13T09:06:52;1434.66;;;-146.10;100.00
12763;BME280;6445;52.490;13.378;2023-02-13T09:09:17;929.16;;;-146.10;100.00
12763;BME280;6445;52.490;13.378;2023-02-13T09:11:43;929.16;;;-146.10;100.00
12763;BME280;6445;52.490;13.378;2023-02-13T09:14:08;676.41;;;-146.10;100.00
12763;BME280;6445;52.490;13.378;2023-02-13T09:16:33;423.72;;;-146.10;100.00
12763;BME280;6445;52.490;13.378;2023-02-13T09:18:59;-586.97;;;-146.10;100.00
12763;BME280;6445;52.490;13.378;2023-02-13T09:21:24;-1344.81;;;-146.10;100.00
12763;BME280;6445;52.490;13.378;2023-02-13T09:23:50;-1597.41;;;-146.10;100.00
12763;BME280;6445;52.490;13.378;2023-02-13T09:26:16;-3112.53;;;-146.10;100.00
12763;BME280;6445;52.490;13.378;2023-02-13T09:28:42;-5131.78;;;-146.10;100.00
12763;BME280;6445;52.490;13.378;2023-02-13T09:31:12;-6141.00;;;-146.10;100.00
12763;BME280;6445;52.490;13.378;2023-02-13T09:33:39;-6645.50;;;-146.10;100.00
12763;BME280;6445;52.490;13.378;2023-02-13T09:36:06;-7654.34;;;-146.10;100.00
12763;BME280;6445;52.490;13.378;2023-02-13T09:38:33;-8410.78;;;-146.10;100.00
12763;BME280;6445;52.490;13.378;2023-02-13T09:41:09;-9419.13;;;-146.10;100.00
12763;BME280;6445;52.490;13.378;2023-02-13T09:43:42;-9671.19;;;-146.10;100.00
12763;BME280;6445;52.490;13.378;2023-02-13T09:46:16;-9923.22;;;-146.10;100.00
12763;BME280;6445;52.490;13.378;2023-02-13T09:48:44;-10679.22;;;-146.10;100.00
12763;BME280;6445;52.490;13.378;2023-02-13T09:51:16;-11435.06;;;-146.10;100.00
12763;BME280;6445;52.490;13.378;2023-02-13T09:53:54;-12190.78;;;-146.10;100.00
12763;BME280;6445;52.490;13.378;2023-02-13T09:56:32;-12694.50;;;-146.10;100.00
12763;BME280;6445;52.490;13.378;2023-02-13T09:59:30;-12695.97;;;-146.10;100.00
12763;BME280;6445;52.490;13.378;2023-02-13T10:02:00;-12695.97;;;-146.10;100.00
12763;BME280;6445;52.490;13.378;2023-02-13T10:05:04;-12695.97;;;-146.10;100.00
12763;BME280;6445;52.490;13.378;2023-02-13T10:10:14;-12695.97;;;-146.10;100.00
12763;BME280;6445;52.490;13.378;2023-02-13T10:12:55;-12695.97;;;-146.10;100.00
12763;BME280;6445;52.490;13.378;2023-02-13T10:15:47;-12695.97;;;-146.10;100.00
12763;BME280;6445;52.490;13.378;2023-02-13T10:18:18;-12695.97;;;-146.10;100.00
12763;BME280;6445;52.490;13.378;2023-02-13T10:20:50;-12695.97;;;-146.10;100.00
12763;BME280;6445;52.490;13.378;2023-02-13T10:23:32;-12695.97;;;-146.10;100.00
12763;BME280;6445;52.490;13.378;2023-02-13T10:26:26;-12695.97;;;-146.10;100.00
12763;BME280;6445;52.490;13.378;2023-02-13T10:29:09;-12695.97;;;-146.10;100.00
12763;BME280;6445;52.490;13.378;2023-02-13T10:31:58;-12695.97;;;-146.10;100.00
12763;BME280;6445;52.490;13.378;2023-02-13T10:34:25;-12695.97;;;-146.10;100.00
12763;BME280;6445;52.490;13.378;2023-02-13T10:36:52;-12695.97;;;-146.10;100.00
12763;BME280;6445;52.490;13.378;2023-02-13T10:39:22;-12695.97;;;-146.10;100.00
12763;BME280;6445;52.490;13.378;2023-02-13T10:50:19;-12695.97;;;-146.10;100.00
12763;BME280;6445;52.490;13.378;2023-02-13T10:52:53;-12695.97;;;-146.10;100.00
12763;BME280;6445;52.490;13.378;2023-02-13T10:58:01;-12695.97;;;-146.10;100.00
12763;BME280;6445;52.490;13.378;2023-02-13T11:01:11;-12695.97;;;-146.10;100.00
12763;BME280;6445;52.490;13.378;2023-02-13T11:03:39;-12695.97;;;-146.10;100.00
12763;BME280;6445;52.490;13.378;2023-02-13T11:06:07;-12695.97;;;-146.10;100.00
12763;BME280;6445;52.490;13.378;2023-02-13T11:08:42;-12695.97;;;-146.10;100.00
12763;BME280;6445;52.490;13.378;2023-02-13T11:11:36;-12695.97;;;-146.10;100.00
12763;BME280;6445;52.490;13.378;2023-02-13T11:14:18;-12695.97;;;-146.10;100.00
12763;BME280;6445;52.490;13.378;2023-02-13T11:16:55;-12442.63;;;-146.10;100.00
12763;BME280;6445;52.490;13.378;2023-02-13T11:22:34;-10175.25;;;-146.10;100.00
12763;BME280;6445;52.490;13.378;2023-02-13T11:25:03;-8410.78;;;-146.10;100.00
12763;BME280;6445;52.490;13.378;2023-02-13T11:27:36;-7149.94;;;-146.10;100.00
12763;BME280;6445;52.490;13.378;2023-02-13T11:30:28;-6141.00;;;-146.10;100.00
12763;BME280;6445;52.490;13.378;2023-02-13T11:33:00;-2102.50;;;-146.10;100.00
12763;BME280;6445;52.490;13.378;2023-02-13T11:35:34;423.72;;;-146.10;100.00
12763;BME280;6445;52.490;13.378;2023-02-13T11:40:35;4469.09;;;-146.10;100.00
12763;BME280;6445;52.490;13.378;2023-02-13T11:43:01;6746.47;;;-146.10;100.00
12763;BME280;6445;52.490;13.378;2023-02-13T11:45:26;10038.41;;;-146.10;100.00
12763;BME280;6445;52.490;13.378;2023-02-13T11:47:53;12319.09;;;-146.10;100.00
12763;BME280;6445;52.490;13.378;2023-02-13T11:50:33;12572.56;;;-146.10;100.00
12763;BME280;6445;52.490;13.378;2023-02-13T11:53:02;18915.22;;;-146.10;100.00
12763;BME280;6445;52.490;13.378;2023-02-13T11:55:36;28221.94;;;-146.10;100.00
12763;BME280;6445;52.490;13.378;2023-02-13T12:03:30;27557.88;;;-146.10;100.00
12763;BME280;6445;52.490;13.378;2023-02-13T12:06:09;33102.63;;;-146.10;100.00
12763;BME280;6445;52.490;13.378;2023-02-13T12:08:40;37782.09;;;-146.10;100.00
12763;BME280;6445;52.490;13.378;2023-02-13T12:11:21;38204.69;;;-146.10;100.00
12763;BME280;6445;52.490;13.378;2023-02-13T12:13:49;36219.66;;;-146.10;100.00
12763;BME280;6445;52.490;13.378;2023-02-13T12:16:37;34944.66;;;-146.10;100.00
12763;BME280;6445;52.490;13.378;2023-02-13T12:19:13;35964.63;;;-146.10;100.00
12763;BME280;6445;52.490;13.378;2023-02-13T12:24:25;42938.13;;;-146.10;100.00
12763;BME280;6445;52.490;13.378;2023-02-13T12:41:22;56197.22;;;-146.10;100.00
12763;BME280;6445;52.490;13.378;2023-02-13T12:50:01;59276.44;;;-146.10;100.00
12763;BME280;6445;52.490;13.378;2023-02-13T12:58:13;63680.03;;;-146.10;100.00
12763;BME280;6445;52.490;13.378;2023-02-13T13:04:01;67598.44;;;-146.10;100.00
12763;BME280;6445;52.490;13.378;2023-02-13T13:06:58;67042.16;;;-146.10;100.00
12763;BME280;6445;52.490;13.378;2023-02-13T13:15:24;68375.75;;;-146.10;100.00
12763;BME280;6445;52.490;13.378;2023-02-13T13:28:43;72067.53;;;-146.10;100.00
12763;BME280;6445;52.490;13.378;2023-02-13T13:31:11;71520.69;;;-146.10;100.00
12763;BME280;6445;52.490;13.378;2023-02-13T13:33:44;70360.91;;;-146.10;100.00
12763;BME280;6445;52.490;13.378;2023-02-13T13:36:34;70670.41;;;-146.10;100.00
12763;BME280;6445;52.490;13.378;2023-02-13T13:39:29;68795.59;;;-146.10;100.00
12763;BME280;6445;52.490;13.378;2023-02-13T13:42:06;71780.03;;;-146.10;100.00
12763;BME280;6445;52.490;13.378;2023-02-13T13:44:46;68166.84;;;-146.10;100.00
12763;BME280;6445;52.490;13.378;2023-02-13T13:50:24;71572.97;;;-146.10;100.00
12763;BME280;6445;52.490;13.378;2023-02-13T13:53:13;75008.13;;;-146.10;100.00
12763;BME280;6445;52.490;13.378;2023-02-13T14:01:18;75330.09;;;-146.10;100.00
12763;BME280;6445;52.490;13.378;2023-02-13T14:03:53;76376.59;;;-146.10;100.00
12763;BME280;6445;52.490;13.378;2023-02-13T14:06:24;77505.94;;;-146.10;100.00
12763;BME280;6445;52.490;13.378;2023-02-13T14:08:54;75992.16;;;-146.10;100.00
12763;BME280;6445;52.490;13.378;2023-02-13T14:11:38;76867.75;;;-146.10;100.00
12763;BME280;6445;52.490;13.378;2023-02-13T14:16:52;77719.34;;;-146.10;100.00
12763;BME280;6445;52.490;13.378;2023-02-13T14:19:33;78055.59;;;-146.10;100.00
12763;BME280;6445;52.490;13.378;2023-02-13T14:22:35;73925.78;;;-146.10;100.00
12763;BME280;6445;52.490;13.378;2023-02-13T14:25:21;76465.16;;;-146.10;100.00
12763;BME280;6445;52.490;13.378;2023-02-13T14:27:56;75122.84;;;-146.10;100.00
12763;BME280;6445;52.490;13.378;2023-02-13T14:30:33;77896.53;;;-146.10;100.00
12763;BME280;6445;52.490;13.378;2023-02-13T14:33:07;76358.47;;;-146.10;100.00
12763;BME280;6445;52.490;13.378;2023-02-13T14:35:58;75483.03;;;-146.10;100.00